Hauptseite
METAR-TAF:

METAR-TAF

Flughäfen :

Flughafen Stettin-Goleniów

Stettin, Polen

Breite: 53-35N, Länge: 014-54E, Höhe: 1 m

Beobachtung

Neuester Wetterbericht von vor 35 Minuten, um 18:00 UTC
Wind 5 kt aus Süd/Südost, variierte zwischen Südost und Süd
Temperatur 24°C
Luftfeuchtigkeit 36%
Luftdruck 1018 hPa
Sichtweite 10 km oder mehr
keine Wolken unter 1500 m und keine Kumulonimbus oder Gewitterwolken

METAR: EPSC 051800Z 16005KT 130V190 CAVOK 24/08 Q1018

Zeit: 20:35 (18:35 UTC)

Prognose

Neuester Wetterbericht von vor 1 Stunde und 5 Minuten, um 17:30 UTC
Gültige Prognose vom 05 um 18 UTC bis 06 um 18 UTC
Wind 6 kt aus Süd/Südost
Sichtweite 10 km oder mehr
keine Wolken unter 1500 m und keine Kumulonimbus oder Gewitterwolken

TAF: EPSC 051730Z 0518/0618 15006KT CAVOK

Wetterbeobachtungen und Prognosen von mehr als 4000 Flughäfen (METAR und TAF Bericht).

Die verfügbaren Stationen werden durch gelbe und rote Markierungen auf der Karte dargestellt.

Führen Sie die Maus auf sie, um den Namen der Station zu sehen.

Darauf klicken, um die Beobachtung von Wetterbeobachtungen und Prognosen zu sehen.

Um die Karte zu ändern : klicken Sie auf den grünen Tasten mit einem schwarzen Kreuz Zum Vergrößern, auf den grünen Button mit einem Gedankenstrich zu verkleinern, oder auf die grünen Pfeile für benachbarte Karten.


METAR-TAF: